Terminal Aerodrome Forecast
Issued by NWS

Current Version | Previous Version | Graphics & Text | Print | Product List | Glossary On
Versions: 1 2 3 4 5 6 7 8 9 10 11 12 13 14 15 16 17
000
FTUS41 KILN 272000 AAC
TAFLCK
TAF AMD
KLCK 272046Z 2721/2818 33008KT 5SM -TSRA BKN040CB
     FM272130 36006KT P6SM SCT040
     FM280000 03004KT P6SM SCT250
      TEMPO 2810/2813 00000KT 3SM BR SKC=

USA.gov is the U.S. government's official web portal to all federal, state and local government web resources and services.